sensor_id;sensor_type;location;lat;lon;timestamp;temperature;humidity
37052;DHT22;22964;52.272;13.356;2023-02-26T00:01:46;5.20;75.10
37052;DHT22;22964;52.272;13.356;2023-02-26T00:04:13;5.10;75.10
37052;DHT22;22964;52.272;13.356;2023-02-26T00:06:40;5.20;75.20
37052;DHT22;22964;52.272;13.356;2023-02-26T00:09:17;5.10;75.10
37052;DHT22;22964;52.272;13.356;2023-02-26T00:11:43;5.20;75.20
37052;DHT22;22964;52.272;13.356;2023-02-26T00:14:13;5.20;75.30
37052;DHT22;22964;52.272;13.356;2023-02-26T00:16:40;5.20;75.30
37052;DHT22;22964;52.272;13.356;2023-02-26T00:19:07;5.10;75.20
37052;DHT22;22964;52.272;13.356;2023-02-26T00:21:35;5.20;75.30
37052;DHT22;22964;52.272;13.356;2023-02-26T00:24:01;5.10;75.20
37052;DHT22;22964;52.272;13.356;2023-02-26T00:26:29;5.20;75.20
37052;DHT22;22964;52.272;13.356;2023-02-26T00:28:57;5.20;75.90
37052;DHT22;22964;52.272;13.356;2023-02-26T00:31:23;5.20;75.10
37052;DHT22;22964;52.272;13.356;2023-02-26T00:33:50;5.20;75.00
37052;DHT22;22964;52.272;13.356;2023-02-26T00:39:50;5.20;75.00
37052;DHT22;22964;52.272;13.356;2023-02-26T00:42:21;5.20;75.00
37052;DHT22;22964;52.272;13.356;2023-02-26T00:44:47;5.20;74.90
37052;DHT22;22964;52.272;13.356;2023-02-26T00:50:09;5.10;74.80
37052;DHT22;22964;52.272;13.356;2023-02-26T00:55:33;5.10;74.80
37052;DHT22;22964;52.272;13.356;2023-02-26T00:57:59;5.10;74.70
37052;DHT22;22964;52.272;13.356;2023-02-26T01:00:24;5.10;74.70
37052;DHT22;22964;52.272;13.356;2023-02-26T01:02:50;5.10;74.70
37052;DHT22;22964;52.272;13.356;2023-02-26T01:05:18;5.10;74.70
37052;DHT22;22964;52.272;13.356;2023-02-26T01:08:08;5.10;74.80
37052;DHT22;22964;52.272;13.356;2023-02-26T01:10:37;5.10;74.80
37052;DHT22;22964;52.272;13.356;2023-02-26T01:13:03;5.10;74.70
37052;DHT22;22964;52.272;13.356;2023-02-26T01:15:29;5.10;74.80
37052;DHT22;22964;52.272;13.356;2023-02-26T01:18:16;5.00;74.70
37052;DHT22;22964;52.272;13.356;2023-02-26T01:20:47;5.00;74.70
37052;DHT22;22964;52.272;13.356;2023-02-26T01:23:21;5.00;74.80
37052;DHT22;22964;52.272;13.356;2023-02-26T01:25:50;5.00;74.80
37052;DHT22;22964;52.272;13.356;2023-02-26T01:28:19;5.00;74.80
37052;DHT22;22964;52.272;13.356;2023-02-26T01:30:46;5.00;74.70
37052;DHT22;22964;52.272;13.356;2023-02-26T01:35:49;5.00;74.60
37052;DHT22;22964;52.272;13.356;2023-02-26T01:43:33;5.00;74.60
37052;DHT22;22964;52.272;13.356;2023-02-26T01:48:54;5.00;74.60
37052;DHT22;22964;52.272;13.356;2023-02-26T01:51:46;5.00;74.60
37052;DHT22;22964;52.272;13.356;2023-02-26T01:54:14;5.00;74.60
37052;DHT22;22964;52.272;13.356;2023-02-26T01:56:40;5.00;74.60
37052;DHT22;22964;52.272;13.356;2023-02-26T01:59:09;5.00;74.60
37052;DHT22;22964;52.272;13.356;2023-02-26T02:01:37;5.00;74.60
37052;DHT22;22964;52.272;13.356;2023-02-26T02:04:07;5.00;74.50
37052;DHT22;22964;52.272;13.356;2023-02-26T02:06:34;5.00;74.60
37052;DHT22;22964;52.272;13.356;2023-02-26T02:09:03;5.00;74.50
37052;DHT22;22964;52.272;13.356;2023-02-26T02:11:29;5.00;74.50
37052;DHT22;22964;52.272;13.356;2023-02-26T02:17:01;5.00;74.50
37052;DHT22;22964;52.272;13.356;2023-02-26T02:28:27;5.00;74.50
37052;DHT22;22964;52.272;13.356;2023-02-26T02:31:05;5.00;74.50
37052;DHT22;22964;52.272;13.356;2023-02-26T02:33:42;5.00;74.50
37052;DHT22;22964;52.272;13.356;2023-02-26T02:36:18;5.00;74.50
37052;DHT22;22964;52.272;13.356;2023-02-26T02:38:48;5.00;74.50
37052;DHT22;22964;52.272;13.356;2023-02-26T02:41:23;5.10;74.60
37052;DHT22;22964;52.272;13.356;2023-02-26T02:43:53;5.10;74.50
37052;DHT22;22964;52.272;13.356;2023-02-26T02:46:26;5.10;74.50
37052;DHT22;22964;52.272;13.356;2023-02-26T02:49:04;5.10;74.40
37052;DHT22;22964;52.272;13.356;2023-02-26T02:51:41;5.10;74.30
37052;DHT22;22964;52.272;13.356;2023-02-26T02:54:14;5.10;74.30
37052;DHT22;22964;52.272;13.356;2023-02-26T02:56:51;5.10;74.30
37052;DHT22;22964;52.272;13.356;2023-02-26T03:01:54;5.10;74.10
37052;DHT22;22964;52.272;13.356;2023-02-26T03:04:21;5.10;74.10
37052;DHT22;22964;52.272;13.356;2023-02-26T03:06:47;5.10;74.00
37052;DHT22;22964;52.272;13.356;2023-02-26T03:09:17;5.10;74.00
37052;DHT22;22964;52.272;13.356;2023-02-26T03:11:43;5.10;74.00
37052;DHT22;22964;52.272;13.356;2023-02-26T03:14:10;5.20;73.90
37052;DHT22;22964;52.272;13.356;2023-02-26T03:22:52;5.20;73.80
37052;DHT22;22964;52.272;13.356;2023-02-26T03:25:25;5.20;73.80
37052;DHT22;22964;52.272;13.356;2023-02-26T03:30:45;5.20;73.70
37052;DHT22;22964;52.272;13.356;2023-02-26T03:33:21;5.20;73.60
37052;DHT22;22964;52.272;13.356;2023-02-26T03:36:07;5.20;73.60
37052;DHT22;22964;52.272;13.356;2023-02-26T03:42:03;5.20;73.50
37052;DHT22;22964;52.272;13.356;2023-02-26T03:44:56;5.10;73.40
37052;DHT22;22964;52.272;13.356;2023-02-26T03:47:22;5.20;73.50
37052;DHT22;22964;52.272;13.356;2023-02-26T03:50:08;5.20;73.50
37052;DHT22;22964;52.272;13.356;2023-02-26T03:52:46;5.20;73.40
37052;DHT22;22964;52.272;13.356;2023-02-26T03:56:57;5.20;73.40
37052;DHT22;22964;52.272;13.356;2023-02-26T03:58:58;5.20;73.10
37052;DHT22;22964;52.272;13.356;2023-02-26T04:01:33;5.20;73.50
37052;DHT22;22964;52.272;13.356;2023-02-26T04:04:08;5.20;73.10
37052;DHT22;22964;52.272;13.356;2023-02-26T04:06:36;5.20;73.10
37052;DHT22;22964;52.272;13.356;2023-02-26T04:09:02;5.20;73.10
37052;DHT22;22964;52.272;13.356;2023-02-26T04:11:31;5.10;73.00
37052;DHT22;22964;52.272;13.356;2023-02-26T04:13:58;5.10;73.00
37052;DHT22;22964;52.272;13.356;2023-02-26T04:16:24;5.10;73.00
37052;DHT22;22964;52.272;13.356;2023-02-26T04:18:50;5.10;73.00
37052;DHT22;22964;52.272;13.356;2023-02-26T04:21:18;5.10;73.00
37052;DHT22;22964;52.272;13.356;2023-02-26T04:23:45;5.10;73.10
37052;DHT22;22964;52.272;13.356;2023-02-26T04:26:11;5.10;73.10
37052;DHT22;22964;52.272;13.356;2023-02-26T04:28:40;5.10;73.00
37052;DHT22;22964;52.272;13.356;2023-02-26T04:31:06;5.10;73.00
37052;DHT22;22964;52.272;13.356;2023-02-26T04:33:32;5.10;73.00
37052;DHT22;22964;52.272;13.356;2023-02-26T04:35:59;5.10;72.90
37052;DHT22;22964;52.272;13.356;2023-02-26T04:38:27;5.10;73.00
37052;DHT22;22964;52.272;13.356;2023-02-26T04:40:53;5.10;73.00
37052;DHT22;22964;52.272;13.356;2023-02-26T04:43:19;5.10;73.90
37052;DHT22;22964;52.272;13.356;2023-02-26T04:45:54;5.10;73.00
37052;DHT22;22964;52.272;13.356;2023-02-26T04:48:20;5.10;73.00
37052;DHT22;22964;52.272;13.356;2023-02-26T04:50:46;5.10;73.00
37052;DHT22;22964;52.272;13.356;2023-02-26T04:53:12;5.10;73.10
37052;DHT22;22964;52.272;13.356;2023-02-26T04:55:38;5.20;73.10
37052;DHT22;22964;52.272;13.356;2023-02-26T04:58:06;5.10;73.00
37052;DHT22;22964;52.272;13.356;2023-02-26T05:00:33;5.20;73.10
37052;DHT22;22964;52.272;13.356;2023-02-26T05:02:59;5.10;72.90
37052;DHT22;22964;52.272;13.356;2023-02-26T05:05:25;5.20;73.00
37052;DHT22;22964;52.272;13.356;2023-02-26T05:07:51;5.20;72.90
37052;DHT22;22964;52.272;13.356;2023-02-26T05:10:20;5.10;72.90
37052;DHT22;22964;52.272;13.356;2023-02-26T05:12:45;5.20;73.00
37052;DHT22;22964;52.272;13.356;2023-02-26T05:15:11;5.20;72.90
37052;DHT22;22964;52.272;13.356;2023-02-26T05:17:37;5.20;73.00
37052;DHT22;22964;52.272;13.356;2023-02-26T05:20:04;5.20;73.00
37052;DHT22;22964;52.272;13.356;2023-02-26T05:22:30;5.20;72.80
37052;DHT22;22964;52.272;13.356;2023-02-26T05:24:56;5.20;72.80
37052;DHT22;22964;52.272;13.356;2023-02-26T05:27:22;5.20;72.70
37052;DHT22;22964;52.272;13.356;2023-02-26T05:29:47;5.20;72.70
37052;DHT22;22964;52.272;13.356;2023-02-26T05:32:14;5.20;72.70
37052;DHT22;22964;52.272;13.356;2023-02-26T05:34:39;5.20;72.80
37052;DHT22;22964;52.272;13.356;2023-02-26T05:37:05;5.20;72.70
37052;DHT22;22964;52.272;13.356;2023-02-26T05:39:31;5.20;72.60
37052;DHT22;22964;52.272;13.356;2023-02-26T05:41:56;5.20;72.60
37052;DHT22;22964;52.272;13.356;2023-02-26T05:44:22;5.20;72.50
37052;DHT22;22964;52.272;13.356;2023-02-26T05:46:48;5.20;72.50
37052;DHT22;22964;52.272;13.356;2023-02-26T05:49:14;5.20;72.60
37052;DHT22;22964;52.272;13.356;2023-02-26T05:51:40;5.20;73.40
37052;DHT22;22964;52.272;13.356;2023-02-26T05:54:08;5.20;72.60
37052;DHT22;22964;52.272;13.356;2023-02-26T05:56:34;5.20;72.50
37052;DHT22;22964;52.272;13.356;2023-02-26T05:59:00;5.20;72.50
37052;DHT22;22964;52.272;13.356;2023-02-26T06:01:26;5.20;72.50
37052;DHT22;22964;52.272;13.356;2023-02-26T06:03:51;5.20;72.50
37052;DHT22;22964;52.272;13.356;2023-02-26T06:06:17;5.20;72.50
37052;DHT22;22964;52.272;13.356;2023-02-26T06:08:44;5.20;72.40
37052;DHT22;22964;52.272;13.356;2023-02-26T06:11:10;5.20;72.30
37052;DHT22;22964;52.272;13.356;2023-02-26T06:13:37;5.20;72.30
37052;DHT22;22964;52.272;13.356;2023-02-26T06:16:03;5.20;72.30
37052;DHT22;22964;52.272;13.356;2023-02-26T06:18:29;5.30;72.30
37052;DHT22;22964;52.272;13.356;2023-02-26T06:20:56;5.20;72.10
37052;DHT22;22964;52.272;13.356;2023-02-26T06:23:22;5.20;71.90
37052;DHT22;22964;52.272;13.356;2023-02-26T06:25:50;5.30;72.00
37052;DHT22;22964;52.272;13.356;2023-02-26T06:28:17;5.20;72.00
37052;DHT22;22964;52.272;13.356;2023-02-26T06:30:43;5.20;71.90
37052;DHT22;22964;52.272;13.356;2023-02-26T06:33:09;5.30;72.00
37052;DHT22;22964;52.272;13.356;2023-02-26T06:35:34;5.30;71.90
37052;DHT22;22964;52.272;13.356;2023-02-26T06:38:00;5.30;71.90
37052;DHT22;22964;52.272;13.356;2023-02-26T06:40:26;5.30;71.90
37052;DHT22;22964;52.272;13.356;2023-02-26T06:42:52;5.30;72.00
37052;DHT22;22964;52.272;13.356;2023-02-26T06:45:17;5.30;72.00
37052;DHT22;22964;52.272;13.356;2023-02-26T06:47:43;5.30;72.00
37052;DHT22;22964;52.272;13.356;2023-02-26T06:50:09;5.30;71.90
37052;DHT22;22964;52.272;13.356;2023-02-26T06:52:35;5.30;71.80
37052;DHT22;22964;52.272;13.356;2023-02-26T06:55:02;5.30;71.70
37052;DHT22;22964;52.272;13.356;2023-02-26T06:57:28;5.30;71.60
37052;DHT22;22964;52.272;13.356;2023-02-26T06:59:53;5.40;71.60
37052;DHT22;22964;52.272;13.356;2023-02-26T07:02:21;5.40;71.60
37052;DHT22;22964;52.272;13.356;2023-02-26T07:04:48;5.40;71.40
37052;DHT22;22964;52.272;13.356;2023-02-26T07:07:14;5.40;71.30
37052;DHT22;22964;52.272;13.356;2023-02-26T07:09:40;5.40;71.30
37052;DHT22;22964;52.272;13.356;2023-02-26T07:12:06;5.40;71.20
37052;DHT22;22964;52.272;13.356;2023-02-26T07:14:33;5.40;71.20
37052;DHT22;22964;52.272;13.356;2023-02-26T07:17:00;5.40;71.20
37052;DHT22;22964;52.272;13.356;2023-02-26T07:19:26;5.50;71.30
37052;DHT22;22964;52.272;13.356;2023-02-26T07:21:51;5.50;71.40
37052;DHT22;22964;52.272;13.356;2023-02-26T07:24:20;5.50;71.50
37052;DHT22;22964;52.272;13.356;2023-02-26T07:26:45;5.50;71.40
37052;DHT22;22964;52.272;13.356;2023-02-26T07:29:11;5.60;71.30
37052;DHT22;22964;52.272;13.356;2023-02-26T07:31:38;5.60;71.10
37052;DHT22;22964;52.272;13.356;2023-02-26T07:34:04;5.70;70.90
37052;DHT22;22964;52.272;13.356;2023-02-26T07:36:29;5.70;70.80
37052;DHT22;22964;52.272;13.356;2023-02-26T07:38:55;5.70;70.60
37052;DHT22;22964;52.272;13.356;2023-02-26T07:41:21;5.70;70.50
37052;DHT22;22964;52.272;13.356;2023-02-26T07:43:47;5.70;70.40
37052;DHT22;22964;52.272;13.356;2023-02-26T07:46:12;5.70;70.40
37052;DHT22;22964;52.272;13.356;2023-02-26T07:48:38;5.70;70.40
37052;DHT22;22964;52.272;13.356;2023-02-26T07:51:04;5.70;70.30
37052;DHT22;22964;52.272;13.356;2023-02-26T07:53:33;5.80;70.50
37052;DHT22;22964;52.272;13.356;2023-02-26T07:55:59;5.80;70.60
37052;DHT22;22964;52.272;13.356;2023-02-26T07:58:24;5.80;70.80
37052;DHT22;22964;52.272;13.356;2023-02-26T08:00:50;5.90;71.10
37052;DHT22;22964;52.272;13.356;2023-02-26T08:03:18;5.90;71.20
37052;DHT22;22964;52.272;13.356;2023-02-26T08:05:43;6.00;71.10
37052;DHT22;22964;52.272;13.356;2023-02-26T08:08:09;6.00;70.70
37052;DHT22;22964;52.272;13.356;2023-02-26T08:10:36;6.10;70.30
37052;DHT22;22964;52.272;13.356;2023-02-26T08:13:01;6.10;70.00
37052;DHT22;22964;52.272;13.356;2023-02-26T08:15:27;6.10;69.70
37052;DHT22;22964;52.272;13.356;2023-02-26T08:17:53;6.10;69.30
37052;DHT22;22964;52.272;13.356;2023-02-26T08:20:19;6.10;69.00
37052;DHT22;22964;52.272;13.356;2023-02-26T08:22:44;6.10;69.20
37052;DHT22;22964;52.272;13.356;2023-02-26T08:25:10;6.10;69.30
37052;DHT22;22964;52.272;13.356;2023-02-26T08:27:37;6.10;69.40
37052;DHT22;22964;52.272;13.356;2023-02-26T08:30:04;6.10;69.60
37052;DHT22;22964;52.272;13.356;2023-02-26T08:32:32;6.10;69.70
37052;DHT22;22964;52.272;13.356;2023-02-26T08:34:58;6.10;69.40
37052;DHT22;22964;52.272;13.356;2023-02-26T08:37:24;6.10;69.10
37052;DHT22;22964;52.272;13.356;2023-02-26T08:39:50;6.20;69.40
37052;DHT22;22964;52.272;13.356;2023-02-26T08:42:16;6.20;69.60
37052;DHT22;22964;52.272;13.356;2023-02-26T08:44:42;6.20;69.50
37052;DHT22;22964;52.272;13.356;2023-02-26T08:47:08;6.30;69.40
37052;DHT22;22964;52.272;13.356;2023-02-26T08:49:34;6.30;69.30
37052;DHT22;22964;52.272;13.356;2023-02-26T08:51:59;6.30;69.40
37052;DHT22;22964;52.272;13.356;2023-02-26T08:54:25;6.30;69.50
37052;DHT22;22964;52.272;13.356;2023-02-26T08:56:51;6.50;69.80
37052;DHT22;22964;52.272;13.356;2023-02-26T08:59:23;6.50;69.80
37052;DHT22;22964;52.272;13.356;2023-02-26T09:01:49;6.50;69.50
37052;DHT22;22964;52.272;13.356;2023-02-26T09:04:15;6.50;69.30
37052;DHT22;22964;52.272;13.356;2023-02-26T09:06:41;6.60;70.20
37052;DHT22;22964;52.272;13.356;2023-02-26T09:09:07;6.60;69.10
37052;DHT22;22964;52.272;13.356;2023-02-26T09:11:33;6.70;69.80
37052;DHT22;22964;52.272;13.356;2023-02-26T09:13:59;6.80;69.00
37052;DHT22;22964;52.272;13.356;2023-02-26T09:16:26;6.80;68.40
37052;DHT22;22964;52.272;13.356;2023-02-26T09:18:53;6.90;68.80
37052;DHT22;22964;52.272;13.356;2023-02-26T09:21:19;6.90;68.80
37052;DHT22;22964;52.272;13.356;2023-02-26T09:23:44;7.00;68.70
37052;DHT22;22964;52.272;13.356;2023-02-26T09:26:10;7.10;68.60
37052;DHT22;22964;52.272;13.356;2023-02-26T09:28:36;7.10;68.80
37052;DHT22;22964;52.272;13.356;2023-02-26T09:31:02;7.20;69.30
37052;DHT22;22964;52.272;13.356;2023-02-26T09:33:27;7.30;69.10
37052;DHT22;22964;52.272;13.356;2023-02-26T09:35:53;7.40;69.10
37052;DHT22;22964;52.272;13.356;2023-02-26T09:38:19;7.50;68.90
37052;DHT22;22964;52.272;13.356;2023-02-26T09:43:41;7.70;68.60
37052;DHT22;22964;52.272;13.356;2023-02-26T09:55:02;8.10;66.10
37052;DHT22;22964;52.272;13.356;2023-02-26T09:57:31;8.20;66.10
37052;DHT22;22964;52.272;13.356;2023-02-26T09:59:58;8.20;66.20
37052;DHT22;22964;52.272;13.356;2023-02-26T10:02:45;8.20;65.10
37052;DHT22;22964;52.272;13.356;2023-02-26T10:05:28;8.30;64.50
37052;DHT22;22964;52.272;13.356;2023-02-26T10:08:06;8.30;64.20
37052;DHT22;22964;52.272;13.356;2023-02-26T10:10:50;8.30;63.90
37052;DHT22;22964;52.272;13.356;2023-02-26T10:13:41;8.30;63.40
37052;DHT22;22964;52.272;13.356;2023-02-26T10:16:19;8.20;63.30
37052;DHT22;22964;52.272;13.356;2023-02-26T10:19:13;8.20;63.70
37052;DHT22;22964;52.272;13.356;2023-02-26T10:21:46;8.20;63.20
37052;DHT22;22964;52.272;13.356;2023-02-26T10:26:54;8.30;63.00
37052;DHT22;22964;52.272;13.356;2023-02-26T10:34:57;8.20;60.00
37052;DHT22;22964;52.272;13.356;2023-02-26T10:45:23;8.10;62.70
37052;DHT22;22964;52.272;13.356;2023-02-26T10:48:15;8.10;61.10
37052;DHT22;22964;52.272;13.356;2023-02-26T10:51:09;8.10;61.30
37052;DHT22;22964;52.272;13.356;2023-02-26T10:53:36;8.10;61.30
37052;DHT22;22964;52.272;13.356;2023-02-26T10:56:19;8.20;62.80
37052;DHT22;22964;52.272;13.356;2023-02-26T10:58:46;8.20;62.00
37052;DHT22;22964;52.272;13.356;2023-02-26T11:01:16;8.20;63.00
37052;DHT22;22964;52.272;13.356;2023-02-26T11:03:56;8.30;63.50
37052;DHT22;22964;52.272;13.356;2023-02-26T11:06:29;8.40;62.10
37052;DHT22;22964;52.272;13.356;2023-02-26T11:08:56;8.50;62.70
37052;DHT22;22964;52.272;13.356;2023-02-26T11:14:07;8.60;57.60
37052;DHT22;22964;52.272;13.356;2023-02-26T11:16:34;8.50;60.10
37052;DHT22;22964;52.272;13.356;2023-02-26T11:19:00;8.50;60.40
37052;DHT22;22964;52.272;13.356;2023-02-26T11:21:29;8.50;60.20
37052;DHT22;22964;52.272;13.356;2023-02-26T11:24:12;8.60;59.70
37052;DHT22;22964;52.272;13.356;2023-02-26T11:26:43;8.60;57.40
37052;DHT22;22964;52.272;13.356;2023-02-26T11:29:15;8.70;57.00
37052;DHT22;22964;52.272;13.356;2023-02-26T11:31:42;8.70;57.10
37052;DHT22;22964;52.272;13.356;2023-02-26T11:34:10;8.70;57.20
37052;DHT22;22964;52.272;13.356;2023-02-26T11:36:38;8.70;55.00
37052;DHT22;22964;52.272;13.356;2023-02-26T11:39:14;8.70;54.60
37052;DHT22;22964;52.272;13.356;2023-02-26T11:41:41;8.60;57.20
37052;DHT22;22964;52.272;13.356;2023-02-26T11:44:31;8.60;58.60
37052;DHT22;22964;52.272;13.356;2023-02-26T11:47:02;8.60;58.80
37052;DHT22;22964;52.272;13.356;2023-02-26T11:49:29;8.70;59.70
37052;DHT22;22964;52.272;13.356;2023-02-26T11:52:14;8.80;59.80
37052;DHT22;22964;52.272;13.356;2023-02-26T11:54:43;8.80;58.40
37052;DHT22;22964;52.272;13.356;2023-02-26T11:57:25;8.90;56.60
37052;DHT22;22964;52.272;13.356;2023-02-26T11:59:52;8.90;56.40
37052;DHT22;22964;52.272;13.356;2023-02-26T12:02:22;8.90;57.60
37052;DHT22;22964;52.272;13.356;2023-02-26T12:04:52;8.90;58.50
37052;DHT22;22964;52.272;13.356;2023-02-26T12:07:20;9.00;58.90
37052;DHT22;22964;52.272;13.356;2023-02-26T12:09:46;9.10;58.60
37052;DHT22;22964;52.272;13.356;2023-02-26T12:37:32;9.40;56.40
37052;DHT22;22964;52.272;13.356;2023-02-26T12:40:10;9.40;56.90
37052;DHT22;22964;52.272;13.356;2023-02-26T12:43:09;9.50;57.60
37052;DHT22;22964;52.272;13.356;2023-02-26T13:10:36;10.00;54.90
37052;DHT22;22964;52.272;13.356;2023-02-26T13:21:13;9.80;55.00
37052;DHT22;22964;52.272;13.356;2023-02-26T13:23:51;9.70;53.90
37052;DHT22;22964;52.272;13.356;2023-02-26T13:26:18;9.70;55.10
37052;DHT22;22964;52.272;13.356;2023-02-26T13:33:59;9.70;56.70
37052;DHT22;22964;52.272;13.356;2023-02-26T13:36:27;9.80;56.20
37052;DHT22;22964;52.272;13.356;2023-02-26T13:41:56;9.90;53.00
37052;DHT22;22964;52.272;13.356;2023-02-26T13:44:41;10.10;55.10
37052;DHT22;22964;52.272;13.356;2023-02-26T13:50:18;10.00;54.90
37052;DHT22;22964;52.272;13.356;2023-02-26T13:52:53;10.10;54.70
37052;DHT22;22964;52.272;13.356;2023-02-26T13:55:39;10.00;54.20
37052;DHT22;22964;52.272;13.356;2023-02-26T14:01:10;9.90;54.90
37052;DHT22;22964;52.272;13.356;2023-02-26T14:03:49;9.90;54.50
37052;DHT22;22964;52.272;13.356;2023-02-26T14:06:23;9.90;55.30
37052;DHT22;22964;52.272;13.356;2023-02-26T14:08:53;9.90;54.80
37052;DHT22;22964;52.272;13.356;2023-02-26T14:14:12;9.70;52.00
37052;DHT22;22964;52.272;13.356;2023-02-26T14:16:43;9.60;51.70
37052;DHT22;22964;52.272;13.356;2023-02-26T14:19:31;9.50;53.10
37052;DHT22;22964;52.272;13.356;2023-02-26T14:22:19;9.40;52.20
37052;DHT22;22964;52.272;13.356;2023-02-26T14:24:55;9.40;53.10
37052;DHT22;22964;52.272;13.356;2023-02-26T14:27:33;9.30;54.20
37052;DHT22;22964;52.272;13.356;2023-02-26T14:32:48;9.20;55.00
37052;DHT22;22964;52.272;13.356;2023-02-26T14:35:21;9.20;55.10
37052;DHT22;22964;52.272;13.356;2023-02-26T14:38:01;9.20;55.40
37052;DHT22;22964;52.272;13.356;2023-02-26T14:40:31;9.20;55.10
37052;DHT22;22964;52.272;13.356;2023-02-26T14:43:01;9.20;55.60
37052;DHT22;22964;52.272;13.356;2023-02-26T14:45:35;9.30;55.70
37052;DHT22;22964;52.272;13.356;2023-02-26T14:48:10;9.30;54.90
37052;DHT22;22964;52.272;13.356;2023-02-26T14:53:56;9.30;54.80
37052;DHT22;22964;52.272;13.356;2023-02-26T14:56:40;9.30;54.40
37052;DHT22;22964;52.272;13.356;2023-02-26T15:02:17;9.20;54.30
37052;DHT22;22964;52.272;13.356;2023-02-26T15:07:43;9.10;51.90
37052;DHT22;22964;52.272;13.356;2023-02-26T15:16:20;8.90;51.40
37052;DHT22;22964;52.272;13.356;2023-02-26T15:24:10;8.60;51.60
37052;DHT22;22964;52.272;13.356;2023-02-26T15:26:45;8.50;52.50
37052;DHT22;22964;52.272;13.356;2023-02-26T15:29:13;8.40;52.40
37052;DHT22;22964;52.272;13.356;2023-02-26T15:31:54;8.40;52.80
37052;DHT22;22964;52.272;13.356;2023-02-26T15:34:21;8.30;53.10
37052;DHT22;22964;52.272;13.356;2023-02-26T15:36:50;8.30;53.40
37052;DHT22;22964;52.272;13.356;2023-02-26T15:39:17;8.20;53.30
37052;DHT22;22964;52.272;13.356;2023-02-26T15:41:45;8.20;53.40
37052;DHT22;22964;52.272;13.356;2023-02-26T15:44:31;8.10;53.20
37052;DHT22;22964;52.272;13.356;2023-02-26T15:47:01;8.10;52.00
37052;DHT22;22964;52.272;13.356;2023-02-26T15:49:32;8.10;53.40
37052;DHT22;22964;52.272;13.356;2023-02-26T15:52:00;8.00;53.00
37052;DHT22;22964;52.272;13.356;2023-02-26T15:54:37;8.00;53.30
37052;DHT22;22964;52.272;13.356;2023-02-26T15:57:04;8.00;53.70
37052;DHT22;22964;52.272;13.356;2023-02-26T15:59:31;8.00;54.40
37052;DHT22;22964;52.272;13.356;2023-02-26T16:02:00;7.90;54.40
37052;DHT22;22964;52.272;13.356;2023-02-26T16:04:26;7.90;54.40
37052;DHT22;22964;52.272;13.356;2023-02-26T16:06:55;7.90;54.50
37052;DHT22;22964;52.272;13.356;2023-02-26T16:09:34;7.90;54.50
37052;DHT22;22964;52.272;13.356;2023-02-26T16:12:06;7.90;54.20
37052;DHT22;22964;52.272;13.356;2023-02-26T16:14:34;7.80;54.40
37052;DHT22;22964;52.272;13.356;2023-02-26T16:17:00;7.80;54.70
37052;DHT22;22964;52.272;13.356;2023-02-26T16:19:32;7.80;55.00
37052;DHT22;22964;52.272;13.356;2023-02-26T16:22:04;7.70;54.70
37052;DHT22;22964;52.272;13.356;2023-02-26T16:24:32;7.60;54.60
37052;DHT22;22964;52.272;13.356;2023-02-26T16:27:02;7.50;54.70
37052;DHT22;22964;52.272;13.356;2023-02-26T16:29:30;7.50;54.70
37052;DHT22;22964;52.272;13.356;2023-02-26T16:32:00;7.40;54.80
37052;DHT22;22964;52.272;13.356;2023-02-26T16:36:52;7.40;55.30
37052;DHT22;22964;52.272;13.356;2023-02-26T16:39:29;7.30;55.30
37052;DHT22;22964;52.272;13.356;2023-02-26T16:42:13;7.30;55.20
37052;DHT22;22964;52.272;13.356;2023-02-26T16:47:11;7.20;55.40
37052;DHT22;22964;52.272;13.356;2023-02-26T16:49:39;7.20;55.60
37052;DHT22;22964;52.272;13.356;2023-02-26T16:52:06;7.20;55.60
37052;DHT22;22964;52.272;13.356;2023-02-26T16:54:40;7.10;55.60
37052;DHT22;22964;52.272;13.356;2023-02-26T16:57:29;7.10;55.70
37052;DHT22;22964;52.272;13.356;2023-02-26T16:59:58;7.00;55.70
37052;DHT22;22964;52.272;13.356;2023-02-26T17:02:30;7.00;56.10
37052;DHT22;22964;52.272;13.356;2023-02-26T17:05:08;6.90;56.00
37052;DHT22;22964;52.272;13.356;2023-02-26T17:07:47;6.90;55.90
37052;DHT22;22964;52.272;13.356;2023-02-26T17:10:35;6.90;55.90
37052;DHT22;22964;52.272;13.356;2023-02-26T17:15:41;6.80;55.90
37052;DHT22;22964;52.272;13.356;2023-02-26T17:18:08;6.70;56.10
37052;DHT22;22964;52.272;13.356;2023-02-26T17:20:35;6.70;56.10
37052;DHT22;22964;52.272;13.356;2023-02-26T17:23:03;6.70;56.10
37052;DHT22;22964;52.272;13.356;2023-02-26T17:25:40;6.70;56.20
37052;DHT22;22964;52.272;13.356;2023-02-26T17:28:07;6.60;56.10
37052;DHT22;22964;52.272;13.356;2023-02-26T17:30:34;6.60;56.50
37052;DHT22;22964;52.272;13.356;2023-02-26T17:33:01;6.60;56.60
37052;DHT22;22964;52.272;13.356;2023-02-26T17:35:28;6.50;56.60
37052;DHT22;22964;52.272;13.356;2023-02-26T17:37:56;6.50;56.60
37052;DHT22;22964;52.272;13.356;2023-02-26T17:40:25;6.40;56.50
37052;DHT22;22964;52.272;13.356;2023-02-26T17:42:52;6.40;56.50
37052;DHT22;22964;52.272;13.356;2023-02-26T17:45:18;6.40;56.50
37052;DHT22;22964;52.272;13.356;2023-02-26T17:47:45;6.30;56.40
37052;DHT22;22964;52.272;13.356;2023-02-26T17:52:51;6.20;56.30
37052;DHT22;22964;52.272;13.356;2023-02-26T17:55:17;6.10;56.60
37052;DHT22;22964;52.272;13.356;2023-02-26T17:57:42;6.20;56.70
37052;DHT22;22964;52.272;13.356;2023-02-26T18:00:11;6.10;56.90
37052;DHT22;22964;52.272;13.356;2023-02-26T18:02:40;6.00;57.00
37052;DHT22;22964;52.272;13.356;2023-02-26T18:05:06;6.00;57.10
37052;DHT22;22964;52.272;13.356;2023-02-26T18:07:32;6.00;57.20
37052;DHT22;22964;52.272;13.356;2023-02-26T18:09:58;6.00;57.50
37052;DHT22;22964;52.272;13.356;2023-02-26T18:12:25;5.90;57.50
37052;DHT22;22964;52.272;13.356;2023-02-26T18:14:50;5.90;57.60
37052;DHT22;22964;52.272;13.356;2023-02-26T18:17:28;5.80;57.80
37052;DHT22;22964;52.272;13.356;2023-02-26T18:19:56;5.80;57.90
37052;DHT22;22964;52.272;13.356;2023-02-26T18:22:22;5.70;58.10
37052;DHT22;22964;52.272;13.356;2023-02-26T18:24:53;5.70;58.30
37052;DHT22;22964;52.272;13.356;2023-02-26T18:27:22;5.70;58.30
37052;DHT22;22964;52.272;13.356;2023-02-26T18:29:48;5.60;58.40
37052;DHT22;22964;52.272;13.356;2023-02-26T18:32:15;5.70;58.60
37052;DHT22;22964;52.272;13.356;2023-02-26T18:34:41;5.60;58.80
37052;DHT22;22964;52.272;13.356;2023-02-26T18:37:19;5.60;58.80
37052;DHT22;22964;52.272;13.356;2023-02-26T18:39:46;5.60;58.90
37052;DHT22;22964;52.272;13.356;2023-02-26T18:42:32;5.60;58.80
37052;DHT22;22964;52.272;13.356;2023-02-26T18:44:57;5.60;58.50
37052;DHT22;22964;52.272;13.356;2023-02-26T18:47:23;5.60;58.60
37052;DHT22;22964;52.272;13.356;2023-02-26T18:49:50;5.50;58.40
37052;DHT22;22964;52.272;13.356;2023-02-26T18:52:17;5.50;58.50
37052;DHT22;22964;52.272;13.356;2023-02-26T18:54:43;5.50;58.20